Private Wetterstation Wechselburg
Wetterdaten: Donnerstag, 19.12.2019
Datum Zeit Temp. +2m Bodentemp. Temp.+5cm Temp. Wind Windchill X Diff Temp. Feuchte +2m Feuchte +5cm Luftdruck Regen Wind Richtung Richtung Sonnenschein Taupunkt Windchill Windben
19.12.2019 00:00 1,5 C 7,8 C 1,1 C 1,3 C 1,0 C 0,0 C 88 % 90 % 1022,0 hPa 0,0 l/m 0,0 km/h (0 Bft) S 180 0 min -0,3 C 1,0 C 0,0 km/h (0 Bft)
19.12.2019 00:05 1,5 C 7,8 C 1,1 C 1,3 C 0,9 C 0,0 C 88 % 90 % 1022,0 hPa 0,0 l/m 0,0 km/h (0 Bft) S 180 0 min -0,3 C 0,9 C 0,0 km/h (0 Bft)
19.12.2019 00:10 1,3 C 7,8 C 1,1 C 1,2 C 1,0 C 0,0 C 88 % 90 % 1022,0 hPa 0,0 l/m 0,0 km/h (0 Bft) S 180 0 min -0,5 C 1,0 C 0,0 km/h (0 Bft)
19.12.2019 00:15 1,2 C 7,8 C 1,1 C 1,1 C 1,0 C 0,0 C 88 % 90 % 1022,0 hPa 0,0 l/m 0,0 km/h (0 Bft) S 180 0 min -0,6 C 1,0 C 0,0 km/h (0 Bft)
19.12.2019 00:20 1,2 C 7,8 C 1,1 C 1,1 C 0,9 C 0,0 C 88 % 90 % 1022,0 hPa 0,0 l/m 0,0 km/h (0 Bft) S 180 0 min -0,6 C 0,9 C 0,0 km/h (0 Bft)
19.12.2019 00:25 1,1 C 7,9 C 1,1 C 1,0 C 0,8 C 0,0 C 88 % 90 % 1022,0 hPa 0,0 l/m 0,0 km/h (0 Bft) S 180 0 min -0,7 C 0,8 C 0,0 km/h (0 Bft)
19.12.2019 00:30 1,1 C 7,9 C 1,0 C 1,0 C 0,8 C 0,0 C 88 % 90 % 1022,0 hPa 0,0 l/m 0,0 km/h (0 Bft) S 180 0 min -0,7 C 0,8 C 0,0 km/h (0 Bft)
19.12.2019 00:35 1,0 C 7,7 C 1,0 C 1,0 C 0,9 C 0,0 C 88 % 90 % 1022,0 hPa 0,0 l/m 0,0 km/h (0 Bft) S 180 0 min -0,8 C 0,9 C 0,0 km/h (0 Bft)
19.12.2019 00:40 1,1 C 7,7 C 0,9 C 1,0 C 0,9 C 0,0 C 88 % 90 % 1022,0 hPa 0,0 l/m 0,0 km/h (0 Bft) S 180 0 min -0,7 C 0,9 C 0,0 km/h (0 Bft)
19.12.2019 00:45 0,9 C 7,7 C 0,9 C 0,9 C 0,8 C 0,0 C 88 % 90 % 1022,0 hPa 0,0 l/m 0,0 km/h (0 Bft) S 180 0 min -0,9 C 0,8 C 0,0 km/h (0 Bft)
19.12.2019 00:50 0,8 C 7,7 C 0,8 C 0,7 C 0,6 C 0,0 C 88 % 89 % 1022,0 hPa 0,0 l/m 0,0 km/h (0 Bft) S 180 0 min -1,0 C 0,6 C 0,0 km/h (0 Bft)
19.12.2019 00:55 0,8 C 7,7 C 0,8 C 0,7 C 0,5 C 0,0 C 88 % 89 % 1022,0 hPa 0,0 l/m 0,0 km/h (0 Bft) S 180 0 min -1,0 C 0,5 C 0,0 km/h (0 Bft)
19.12.2019 01:00 0,7 C 7,7 C 0,7 C 0,5 C 0,2 C 0,0 C 88 % 89 % 1022,4 hPa 0,0 l/m 0,0 km/h (0 Bft) S 180 0 min -1,1 C 0,2 C 0,0 km/h (0 Bft)
19.12.2019 01:05 0,7 C 7,7 C 0,7 C 0,5 C 0,1 C 0,0 C 88 % 89 % 1022,4 hPa 0,0 l/m 0,0 km/h (0 Bft) S 180 0 min -1,1 C 0,1 C 0,0 km/h (0 Bft)
19.12.2019 01:10 0,5 C 7,7 C 0,6 C 0,3 C -0,1 C 0,0 C 88 % 89 % 1022,4 hPa 0,0 l/m 0,0 km/h (0 Bft) S 180 0 min -1,3 C -0,1 C 0,0 km/h (0 Bft)
19.12.2019 01:15 0,5 C 7,7 C 0,6 C 0,3 C -0,1 C 0,0 C 88 % 89 % 1022,4 hPa 0,0 l/m 0,0 km/h (0 Bft) S 180 0 min -1,3 C -0,1 C 0,0 km/h (0 Bft)
19.12.2019 01:20 0,4 C 7,6 C 0,5 C 0,3 C 0,1 C 0,0 C 88 % 89 % 1021,7 hPa 0,0 l/m 0,0 km/h (0 Bft) S 180 0 min -1,3 C 0,1 C 0,0 km/h (0 Bft)
19.12.2019 01:25 0,4 C 7,6 C 0,4 C 0,3 C 0,1 C 0,0 C 88 % 89 % 1021,7 hPa 0,0 l/m 0,0 km/h (0 Bft) S 180 0 min -1,3 C 0,1 C 0,0 km/h (0 Bft)
19.12.2019 01:30 0,3 C 7,6 C 0,4 C 0,2 C 0,0 C 0,0 C 88 % 89 % 1021,7 hPa 0,0 l/m 0,0 km/h (0 Bft) S 180 0 min -1,4 C 0,0 C 0,0 km/h (0 Bft)
19.12.2019 01:35 0,3 C 7,6 C 0,4 C 0,2 C -0,1 C 0,0 C 88 % 89 % 1021,7 hPa 0,0 l/m 0,0 km/h (0 Bft) S 180 0 min -1,4 C -0,1 C 0,0 km/h (0 Bft)
19.12.2019 01:40 0,3 C 7,6 C 0,4 C 0,1 C -0,2 C 0,0 C 88 % 89 % 1021,9 hPa 0,0 l/m 0,0 km/h (0 Bft) S 180 0 min -1,4 C -0,2 C 0,0 km/h (0 Bft)
19.12.2019 01:45 0,3 C 7,6 C 0,4 C 0,1 C -0,2 C 0,0 C 88 % 89 % 1021,9 hPa 0,0 l/m 0,0 km/h (0 Bft) S 180 0 min -1,4 C -0,2 C 0,0 km/h (0 Bft)
19.12.2019 01:50 0,1 C 7,6 C 0,4 C 0,0 C -0,3 C 0,0 C 88 % 89 % 1021,9 hPa 0,0 l/m 0,0 km/h (0 Bft) S 180 0 min -1,6 C -0,3 C 0,0 km/h (0 Bft)
19.12.2019 01:55 0,1 C 7,6 C 0,3 C 0,0 C -0,3 C 0,0 C 88 % 89 % 1021,9 hPa 0,0 l/m 0,0 km/h (0 Bft) S-SO 157 0 min -1,6 C -0,3 C 0,0 km/h (0 Bft)
19.12.2019 02:00 0,0 C 7,6 C 0,3 C -0,1 C -0,2 C 0,0 C 88 % 89 % 1022,1 hPa 0,0 l/m 0,0 km/h (0 Bft) S 180 0 min -1,7 C -0,2 C 0,0 km/h (0 Bft)
19.12.2019 02:05 0,0 C 7,5 C 0,3 C -0,1 C -0,2 C 0,0 C 88 % 89 % 1022,1 hPa 0,0 l/m 0,0 km/h (0 Bft) S-SO 157 0 min -1,7 C -0,2 C 0,0 km/h (0 Bft)
19.12.2019 02:10 0,1 C 7,5 C 0,3 C 0,0 C -0,1 C 0,0 C 88 % 89 % 1022,1 hPa 0,0 l/m 0,2 km/h (0 Bft) S-SO 157 0 min -1,6 C -0,1 C 0,0 km/h (0 Bft)
19.12.2019 02:15 0,1 C 7,5 C 0,3 C 0,1 C 0,1 C 0,0 C 88 % 89 % 1022,1 hPa 0,0 l/m 0,2 km/h (0 Bft) S-SO 157 0 min -1,6 C 0,1 C 0,0 km/h (0 Bft)
19.12.2019 02:20 -0,1 C 7,5 C 0,2 C 0,0 C 0,0 C 0,1 C 88 % 89 % 1022,1 hPa 0,0 l/m 0,0 km/h (0 Bft) S-SO 157 0 min -1,8 C 0,0 C 0,0 km/h (0 Bft)
19.12.2019 02:25 -0,1 C 7,5 C 0,2 C -0,1 C -0,2 C 0,0 C 88 % 90 % 1022,1 hPa 0,0 l/m 0,0 km/h (0 Bft) S 180 0 min -1,8 C -0,2 C 0,0 km/h (0 Bft)
19.12.2019 02:30 -0,2 C 7,5 C 0,1 C -0,3 C -0,4 C 0,0 C 88 % 90 % 1022,1 hPa 0,0 l/m 0,0 km/h (0 Bft) S 180 0 min -1,9 C -0,4 C 0,0 km/h (0 Bft)
19.12.2019 02:35 -0,1 C 7,5 C 0,1 C -0,2 C -0,5 C 0,0 C 89 % 90 % 1022,1 hPa 0,0 l/m 0,0 km/h (0 Bft) S 180 0 min -1,7 C -0,5 C 0,0 km/h (0 Bft)
19.12.2019 02:40 -0,3 C 7,5 C -0,1 C -0,4 C -0,6 C 0,0 C 89 % 90 % 1021,7 hPa 0,0 l/m 0,0 km/h (0 Bft) S 180 0 min -1,9 C -0,6 C 0,0 km/h (0 Bft)
19.12.2019 02:45 -0,3 C 7,5 C -0,1 C -0,4 C -0,6 C 0,0 C 89 % 89 % 1021,7 hPa 0,0 l/m 0,0 km/h (0 Bft) S 180 0 min -1,9 C -0,6 C 0,0 km/h (0 Bft)
19.12.2019 02:50 -0,4 C 7,4 C -0,1 C -0,4 C -0,5 C 0,0 C 89 % 90 % 1021,7 hPa 0,0 l/m 0,0 km/h (0 Bft) S-SO 157 0 min -2,0 C -0,5 C 0,0 km/h (0 Bft)
19.12.2019 02:55 -0,4 C 7,4 C -0,1 C -0,4 C -0,5 C 0,0 C 89 % 90 % 1021,7 hPa 0,0 l/m 0,0 km/h (0 Bft) S 180 0 min -2,0 C -0,5 C 0,0 km/h (0 Bft)
19.12.2019 03:00 -0,4 C 7,4 C 0,0 C -0,4 C -0,4 C 0,0 C 89 % 90 % 1021,6 hPa 0,0 l/m 0,0 km/h (0 Bft) S 180 0 min -2,0 C -0,4 C 0,0 km/h (0 Bft)
19.12.2019 03:05 -0,4 C 7,4 C 0,0 C -0,4 C -0,4 C 0,0 C 89 % 90 % 1021,6 hPa 0,0 l/m 0,0 km/h (0 Bft) S 180 0 min -2,0 C -0,4 C 0,0 km/h (0 Bft)
19.12.2019 03:10 -0,3 C 7,4 C -0,1 C -0,3 C -0,3 C 0,0 C 89 % 90 % 1021,6 hPa 0,0 l/m 0,0 km/h (0 Bft) S-SO 157 0 min -1,9 C -0,3 C 0,0 km/h (0 Bft)
19.12.2019 03:15 -0,5 C 7,4 C -0,1 C -0,3 C -0,3 C 0,2 C 88 % 90 % 1021,6 hPa 0,0 l/m 0,0 km/h (0 Bft) S-SO 157 0 min -2,2 C -0,3 C 0,0 km/h (0 Bft)
19.12.2019 03:20 -0,5 C 7,4 C -0,1 C -0,2 C -0,2 C 0,3 C 88 % 90 % 1021,6 hPa 0,0 l/m 0,0 km/h (0 Bft) S-SO 157 0 min -2,2 C -0,2 C 0,0 km/h (0 Bft)
19.12.2019 03:25 -0,5 C 7,4 C -0,1 C 0,0 C 0,0 C 0,5 C 88 % 90 % 1021,6 hPa 0,0 l/m 0,0 km/h (0 Bft) S-SO 157 0 min -2,2 C 0,0 C 0,0 km/h (0 Bft)
19.12.2019 03:30 -0,4 C 7,4 C -0,1 C 0,1 C 0,1 C 0,5 C 89 % 90 % 1021,6 hPa 0,0 l/m 0,0 km/h (0 Bft) S-SO 157 0 min -2,0 C 0,1 C 0,0 km/h (0 Bft)
19.12.2019 03:35 -0,3 C 7,4 C -0,1 C 0,1 C 0,1 C 0,4 C 89 % 90 % 1021,6 hPa 0,0 l/m 0,0 km/h (0 Bft) S-SO 157 0 min -1,9 C 0,1 C 0,0 km/h (0 Bft)
19.12.2019 03:40 -0,5 C 7,3 C -0,1 C 0,0 C 0,0 C 0,5 C 88 % 90 % 1020,8 hPa 0,0 l/m 0,0 km/h (0 Bft) S-SO 157 0 min -2,2 C 0,0 C 0,0 km/h (0 Bft)
19.12.2019 03:45 -0,5 C 7,3 C -0,1 C 0,0 C 0,0 C 0,5 C 88 % 90 % 1020,8 hPa 0,0 l/m 0,0 km/h (0 Bft) S-SO 157 0 min -2,2 C 0,0 C 0,0 km/h (0 Bft)
19.12.2019 03:50 -0,4 C 7,3 C -0,1 C 0,2 C 0,2 C 0,6 C 89 % 90 % 1020,8 hPa 0,0 l/m 0,0 km/h (0 Bft) S-SO 157 0 min -2,0 C 0,2 C 0,0 km/h (0 Bft)
19.12.2019 03:55 -0,3 C 7,3 C -0,1 C 0,3 C 0,3 C 0,6 C 89 % 90 % 1020,8 hPa 0,0 l/m 0,0 km/h (0 Bft) S-SO 157 0 min -1,9 C 0,3 C 0,0 km/h (0 Bft)
19.12.2019 04:00 -0,3 C 7,3 C -0,1 C 0,5 C 0,5 C 0,8 C 89 % 90 % 1021,2 hPa 0,0 l/m 0,0 km/h (0 Bft) S-SO 157 0 min -1,9 C 0,5 C 0,0 km/h (0 Bft)
19.12.2019 04:05 -0,3 C 7,3 C 0,0 C 0,4 C 0,4 C 0,7 C 89 % 90 % 1021,2 hPa 0,0 l/m 0,0 km/h (0 Bft) S-SO 157 0 min -1,9 C 0,4 C 0,0 km/h (0 Bft)
19.12.2019 04:10 -0,3 C 7,3 C 0,0 C 0,2 C 0,2 C 0,5 C 89 % 90 % 1021,2 hPa 0,0 l/m 0,0 km/h (0 Bft) S 180 0 min -1,9 C 0,2 C 0,0 km/h (0 Bft)
19.12.2019 04:15 -0,4 C 7,3 C 0,0 C 0,1 C 0,1 C 0,5 C 89 % 90 % 1021,2 hPa 0,0 l/m 0,0 km/h (0 Bft) S 180 0 min -2,0 C 0,1 C 0,0 km/h (0 Bft)
19.12.2019 04:20 -0,3 C 7,3 C -0,1 C 0,0 C 0,0 C 0,3 C 89 % 90 % 1020,9 hPa 0,0 l/m 0,0 km/h (0 Bft) S-SO 157 0 min -1,9 C 0,0 C 0,0 km/h (0 Bft)
19.12.2019 04:25 -0,5 C 7,2 C -0,1 C 0,1 C 0,1 C 0,6 C 88 % 90 % 1020,9 hPa 0,0 l/m 0,0 km/h (0 Bft) S-SO 157 0 min -2,2 C 0,1 C 0,0 km/h (0 Bft)
19.12.2019 04:30 -0,4 C 7,2 C -0,1 C 0,2 C 0,2 C 0,6 C 89 % 90 % 1020,9 hPa 0,0 l/m 0,0 km/h (0 Bft) S-SO 157 0 min -2,0 C 0,2 C 0,0 km/h (0 Bft)
19.12.2019 04:35 -0,4 C 7,2 C -0,1 C 0,3 C 0,3 C 0,7 C 89 % 90 % 1020,9 hPa 0,0 l/m 0,0 km/h (0 Bft) S-SO 157 0 min -2,0 C 0,3 C 0,0 km/h (0 Bft)
19.12.2019 04:40 -0,4 C 7,2 C -0,1 C 0,4 C 0,4 C 0,8 C 89 % 90 % 1020,8 hPa 0,0 l/m 0,0 km/h (0 Bft) S 180 0 min -2,0 C 0,4 C 0,0 km/h (0 Bft)
19.12.2019 04:45 -0,4 C 7,2 C -0,1 C 0,4 C 0,4 C 0,8 C 89 % 90 % 1020,8 hPa 0,0 l/m 0,0 km/h (0 Bft) S 180 0 min -2,0 C 0,4 C 0,0 km/h (0 Bft)
19.12.2019 04:50 -0,4 C 7,2 C -0,1 C 0,4 C 0,4 C 0,8 C 89 % 90 % 1020,8 hPa 0,0 l/m 0,0 km/h (0 Bft) S 180 0 min -2,0 C 0,4 C 0,0 km/h (0 Bft)
19.12.2019 04:55 -0,4 C 7,2 C -0,1 C 0,6 C 0,6 C 1,0 C 89 % 90 % 1020,8 hPa 0,0 l/m 0,0 km/h (0 Bft) S 180 0 min -2,0 C 0,6 C 0,0 km/h (0 Bft)
19.12.2019 05:00 -0,3 C 7,2 C -0,1 C 0,7 C 0,7 C 1,0 C 89 % 90 % 1021,4 hPa 0,0 l/m 0,0 km/h (0 Bft) S-SO 157 0 min -1,9 C 0,7 C 0,0 km/h (0 Bft)
19.12.2019 05:05 -0,3 C 7,2 C -0,1 C 0,7 C 0,7 C 1,0 C 89 % 90 % 1021,4 hPa 0,0 l/m 0,0 km/h (0 Bft) S-SO 157 0 min -1,9 C 0,7 C 0,0 km/h (0 Bft)
19.12.2019 05:10 -0,3 C 7,2 C 0,0 C 0,7 C 0,7 C 1,0 C 89 % 90 % 1021,4 hPa 0,0 l/m 0,0 km/h (0 Bft) S-SO 157 0 min -1,9 C 0,7 C 0,0 km/h (0 Bft)
19.12.2019 05:15 -0,3 C 7,2 C 0,0 C 0,7 C 0,7 C 1,0 C 89 % 90 % 1021,4 hPa 0,0 l/m 0,0 km/h (0 Bft) S-SO 157 0 min -1,9 C 0,7 C 0,0 km/h (0 Bft)
19.12.2019 05:20 -0,3 C 7,2 C 0,0 C 0,8 C 0,8 C 1,1 C 89 % 90 % 1021,1 hPa 0,0 l/m 0,0 km/h (0 Bft) S-SO 157 0 min -1,9 C 0,8 C 0,0 km/h (0 Bft)
19.12.2019 05:25 -0,3 C 7,1 C 0,0 C 1,0 C 1,0 C 1,3 C 89 % 90 % 1021,1 hPa 0,0 l/m 0,0 km/h (0 Bft) S-SO 157 0 min -1,9 C 1,0 C 0,0 km/h (0 Bft)
19.12.2019 05:30 -0,1 C 7,1 C 0,1 C 1,4 C 1,4 C 1,5 C 89 % 90 % 1021,1 hPa 0,0 l/m 0,0 km/h (0 Bft) S-SO 157 0 min -1,7 C 1,4 C 0,0 km/h (0 Bft)
19.12.2019 05:35 -0,2 C 7,1 C 0,1 C 1,3 C 1,3 C 1,5 C 89 % 90 % 1021,1 hPa 0,0 l/m 0,0 km/h (0 Bft) S-SO 157 0 min -1,8 C 1,3 C 0,0 km/h (0 Bft)
19.12.2019 05:40 -0,1 C 7,1 C 0,1 C 0,9 C 0,9 C 1,0 C 89 % 90 % 1020,9 hPa 0,0 l/m 0,0 km/h (0 Bft) S 180 0 min -1,7 C 0,9 C 0,0 km/h (0 Bft)
19.12.2019 05:45 -0,3 C 7,1 C 0,1 C 0,8 C 0,8 C 1,1 C 89 % 90 % 1020,9 hPa 0,0 l/m 0,0 km/h (0 Bft) S 180 0 min -1,9 C 0,8 C 0,0 km/h (0 Bft)
19.12.2019 05:50 -0,3 C 7,1 C 0,0 C 0,7 C 0,7 C 1,0 C 89 % 90 % 1020,9 hPa 0,0 l/m 0,0 km/h (0 Bft) S 180 0 min -1,9 C 0,7 C 0,0 km/h (0 Bft)
19.12.2019 05:55 -0,3 C 7,1 C 0,0 C 0,5 C 0,5 C 0,8 C 89 % 90 % 1020,9 hPa 0,0 l/m 0,0 km/h (0 Bft) S 180 0 min -1,9 C 0,5 C 0,0 km/h (0 Bft)
19.12.2019 06:00 -0,3 C 7,1 C 0,1 C 0,4 C 0,4 C 0,7 C 89 % 90 % 1020,4 hPa 0,0 l/m 0,0 km/h (0 Bft) S-SO 157 0 min -1,9 C 0,4 C 0,0 km/h (0 Bft)
19.12.2019 06:05 -0,4 C 7,1 C 0,1 C 0,5 C 0,5 C 0,9 C 89 % 90 % 1020,4 hPa 0,0 l/m 0,0 km/h (0 Bft) S 180 0 min -2,0 C 0,5 C 0,0 km/h (0 Bft)
19.12.2019 06:10 -0,4 C 7,1 C 0,1 C 0,3 C 0,3 C 0,7 C 89 % 90 % 1020,4 hPa 0,0 l/m 0,0 km/h (0 Bft) S 180 0 min -2,0 C 0,3 C 0,0 km/h (0 Bft)
19.12.2019 06:15 -0,4 C 7,1 C 0,0 C 0,3 C 0,3 C 0,7 C 89 % 90 % 1020,4 hPa 0,0 l/m 0,0 km/h (0 Bft) S-SO 157 0 min -2,0 C 0,3 C 0,0 km/h (0 Bft)
19.12.2019 06:20 -0,3 C 7,0 C -0,1 C 0,2 C 0,2 C 0,5 C 89 % 90 % 1020,4 hPa 0,0 l/m 0,0 km/h (0 Bft) S-SO 157 0 min -1,9 C 0,2 C 0,0 km/h (0 Bft)
19.12.2019 06:25 -0,5 C 7,0 C -0,1 C 0,4 C 0,4 C 0,9 C 88 % 90 % 1020,4 hPa 0,0 l/m 0,0 km/h (0 Bft) S-SO 157 0 min -2,2 C 0,4 C 0,0 km/h (0 Bft)
19.12.2019 06:30 -0,3 C 7,0 C 0,0 C 0,3 C 0,3 C 0,6 C 89 % 90 % 1020,4 hPa 0,0 l/m 0,0 km/h (0 Bft) S 180 0 min -1,9 C 0,3 C 0,0 km/h (0 Bft)
19.12.2019 06:35 -0,5 C 7,0 C 0,0 C 0,3 C 0,3 C 0,8 C 88 % 90 % 1020,4 hPa 0,0 l/m 0,0 km/h (0 Bft) S 180 0 min -2,2 C 0,3 C 0,0 km/h (0 Bft)
19.12.2019 06:40 -0,5 C 7,0 C -0,1 C 0,2 C 0,2 C 0,7 C 88 % 90 % 1020,1 hPa 0,0 l/m 0,0 km/h (0 Bft) S-SO 157 0 min -2,2 C 0,2 C 0,0 km/h (0 Bft)
19.12.2019 06:45 -0,5 C 7,0 C -0,1 C 0,2 C 0,2 C 0,7 C 88 % 90 % 1020,1 hPa 0,0 l/m 0,2 km/h (0 Bft) S-SO 157 0 min -2,2 C 0,2 C 0,0 km/h (0 Bft)
19.12.2019 06:50 -0,5 C 7,0 C -0,1 C 0,2 C 0,2 C 0,7 C 88 % 90 % 1020,1 hPa 0,0 l/m 0,2 km/h (0 Bft) S-SO 157 0 min -2,2 C 0,2 C 1,8 km/h (1 Bft)
19.12.2019 06:55 -0,5 C 7,0 C 0,1 C 0,6 C 0,6 C 1,1 C 88 % 90 % 1020,1 hPa 0,0 l/m 0,2 km/h (0 Bft) S-SO 157 0 min -2,2 C 0,6 C 2,1 km/h (1 Bft)
19.12.2019 07:00 -0,3 C 7,0 C 0,1 C 0,9 C 0,9 C 1,2 C 89 % 90 % 1020,2 hPa 0,0 l/m 0,2 km/h (0 Bft) S-SO 157 0 min -1,9 C 0,9 C 0,0 km/h (0 Bft)
19.12.2019 07:05 -0,3 C 7,0 C 0,1 C 0,8 C 0,8 C 1,1 C 89 % 90 % 1020,2 hPa 0,0 l/m 0,0 km/h (0 Bft) S 180 0 min -1,9 C 0,8 C 0,0 km/h (0 Bft)
19.12.2019 07:10 -0,5 C 7,0 C -0,1 C 0,4 C 0,4 C 0,9 C 88 % 90 % 1020,2 hPa 0,0 l/m 0,0 km/h (0 Bft) S 180 0 min -2,2 C 0,4 C 0,0 km/h (0 Bft)
19.12.2019 07:15 -0,5 C 6,9 C -0,2 C 0,1 C 0,1 C 0,6 C 88 % 90 % 1020,2 hPa 0,0 l/m 0,0 km/h (0 Bft) S 180 0 min -2,2 C 0,1 C 0,0 km/h (0 Bft)
19.12.2019 07:20 -0,7 C 6,9 C -0,3 C -0,2 C -0,2 C 0,5 C 88 % 90 % 1020,0 hPa 0,0 l/m 0,0 km/h (0 Bft) S-SO 157 0 min -2,4 C -0,2 C 0,0 km/h (0 Bft)
19.12.2019 07:25 -0,7 C 6,9 C -0,2 C -0,2 C -0,2 C 0,5 C 88 % 90 % 1020,0 hPa 0,0 l/m 0,0 km/h (0 Bft) S-SO 157 0 min -2,4 C -0,2 C 0,0 km/h (0 Bft)
19.12.2019 07:30 -0,7 C 6,9 C -0,3 C 0,0 C 0,0 C 0,7 C 88 % 90 % 1020,0 hPa 0,0 l/m 0,0 km/h (0 Bft) S-SO 157 0 min -2,4 C 0,0 C 0,0 km/h (0 Bft)
19.12.2019 07:35 -0,7 C 6,9 C -0,3 C 0,2 C 0,2 C 0,9 C 88 % 90 % 1020,0 hPa 0,0 l/m 0,0 km/h (0 Bft) S-SO 157 0 min -2,4 C 0,2 C 0,0 km/h (0 Bft)
19.12.2019 07:40 -0,7 C 6,9 C -0,3 C 0,5 C 0,5 C 1,2 C 88 % 90 % 1019,9 hPa 0,0 l/m 0,0 km/h (0 Bft) S-SO 157 0 min -2,4 C 0,5 C 0,0 km/h (0 Bft)
19.12.2019 07:45 -0,7 C 6,9 C -0,3 C 0,7 C 0,7 C 1,4 C 88 % 90 % 1019,9 hPa 0,0 l/m 0,0 km/h (0 Bft) S-SO 157 0 min -2,4 C 0,7 C 0,0 km/h (0 Bft)
19.12.2019 07:50 -0,7 C 6,9 C -0,2 C 0,8 C 0,8 C 1,5 C 88 % 90 % 1019,9 hPa 0,0 l/m 0,0 km/h (0 Bft) S-SO 157 0 min -2,4 C 0,8 C 0,0 km/h (0 Bft)
19.12.2019 07:55 -0,5 C 6,9 C -0,1 C 0,9 C 0,9 C 1,4 C 88 % 90 % 1019,9 hPa 0,0 l/m 0,0 km/h (0 Bft) S-SO 157 0 min -2,2 C 0,9 C 0,0 km/h (0 Bft)
19.12.2019 08:00 -0,5 C 6,9 C -0,1 C 1,2 C 1,2 C 1,7 C 88 % 90 % 1020,3 hPa 0,0 l/m 0,0 km/h (0 Bft) S 180 0 min -2,2 C 1,2 C 0,0 km/h (0 Bft)
19.12.2019 08:05 -0,5 C 6,9 C 0,0 C 1,2 C 1,2 C 1,7 C 88 % 90 % 1020,3 hPa 0,0 l/m 0,0 km/h (0 Bft) S 180 0 min -2,2 C 1,2 C 0,0 km/h (0 Bft)
19.12.2019 08:10 -0,5 C 6,9 C 0,0 C 1,0 C 1,0 C 1,5 C 88 % 91 % 1020,3 hPa 0,0 l/m 0,0 km/h (0 Bft) S-SO 157 0 min -2,2 C 1,0 C 0,0 km/h (0 Bft)
19.12.2019 08:15 -0,5 C 6,9 C 0,1 C 1,0 C 1,0 C 1,5 C 88 % 91 % 1020,3 hPa 0,0 l/m 0,0 km/h (0 Bft) S-SO 157 0 min -2,2 C 1,0 C 0,0 km/h (0 Bft)
19.12.2019 08:20 -0,5 C 6,9 C 0,1 C 0,9 C 0,9 C 1,4 C 88 % 90 % 1019,7 hPa 0,0 l/m 0,0 km/h (0 Bft) S 180 0 min -2,2 C 0,9 C 0,0 km/h (0 Bft)
19.12.2019 08:25 -0,3 C 6,9 C 0,2 C 0,9 C 0,9 C 1,2 C 89 % 91 % 1019,7 hPa 0,0 l/m 0,0 km/h (0 Bft) S-SO 157 5 min -1,9 C 0,9 C 0,0 km/h (0 Bft)
19.12.2019 08:30 -0,4 C 6,9 C 0,3 C 1,0 C 1,0 C 1,4 C 89 % 91 % 1019,7 hPa 0,0 l/m 0,0 km/h (0 Bft) S-SO 157 5 min -2,0 C 1,0 C 0,0 km/h (0 Bft)
19.12.2019 08:35 -0,3 C 6,8 C 0,3 C 1,2 C 1,2 C 1,5 C 89 % 91 % 1019,7 hPa 0,0 l/m 0,0 km/h (0 Bft) S-SO 157 5 min -1,9 C 1,2 C 0,0 km/h (0 Bft)
19.12.2019 08:40 -0,1 C 6,8 C 0,5 C 1,4 C 1,4 C 1,5 C 89 % 91 % 1019,8 hPa 0,0 l/m 0,0 km/h (0 Bft) S 180 5 min -1,7 C 1,4 C 0,0 km/h (0 Bft)
19.12.2019 08:45 -0,1 C 6,8 C 0,5 C 1,5 C 1,5 C 1,6 C 89 % 91 % 1019,8 hPa 0,0 l/m 0,0 km/h (0 Bft) S 180 5 min -1,7 C 1,5 C 0,0 km/h (0 Bft)
19.12.2019 08:50 -0,1 C 6,8 C 0,5 C 1,6 C 1,6 C 1,7 C 89 % 91 % 1019,8 hPa 0,0 l/m 0,0 km/h (0 Bft) S 180 5 min -1,7 C 1,6 C 0,0 km/h (0 Bft)
19.12.2019 08:55 -0,1 C 6,8 C 0,6 C 1,6 C 1,6 C 1,7 C 89 % 90 % 1019,8 hPa 0,0 l/m 0,0 km/h (0 Bft) S 180 5 min -1,7 C 1,6 C 0,0 km/h (0 Bft)
19.12.2019 09:00 -0,1 C 6,8 C 0,7 C 1,6 C 1,6 C 1,7 C 89 % 91 % 1019,7 hPa 0,0 l/m 0,0 km/h (0 Bft) S-SO 157 5 min -1,7 C 1,6 C 0,0 km/h (0 Bft)
19.12.2019 09:05 0,1 C 6,8 C 0,7 C 1,8 C 1,8 C 1,7 C 89 % 90 % 1019,7 hPa 0,0 l/m 0,0 km/h (0 Bft) S-SO 157 5 min -1,5 C 1,8 C 0,0 km/h (0 Bft)
19.12.2019 09:10 0,3 C 6,8 C 0,8 C 2,0 C 2,0 C 1,7 C 89 % 91 % 1019,7 hPa 0,0 l/m 0,0 km/h (0 Bft) S-SO 157 5 min -1,3 C 2,0 C 0,0 km/h (0 Bft)
19.12.2019 09:15 0,3 C 6,7 C 0,9 C 2,2 C 2,2 C 1,9 C 89 % 91 % 1019,7 hPa 0,0 l/m 0,0 km/h (0 Bft) S 180 0 min -1,3 C 2,2 C 0,0 km/h (0 Bft)
19.12.2019 09:20 0,4 C 6,7 C 1,1 C 2,5 C 2,5 C 2,1 C 89 % 91 % 1019,6 hPa 0,0 l/m 0,0 km/h (0 Bft) S-SO 157 0 min -1,2 C 2,5 C 0,0 km/h (0 Bft)
19.12.2019 09:25 0,5 C 6,7 C 1,2 C 2,6 C 2,6 C 2,1 C 89 % 91 % 1019,6 hPa 0,0 l/m 0,0 km/h (0 Bft) S-SO 157 0 min -1,1 C 2,6 C 0,0 km/h (0 Bft)
19.12.2019 09:30 0,7 C 6,7 C 1,3 C 2,8 C 2,8 C 2,1 C 89 % 91 % 1019,6 hPa 0,0 l/m 0,0 km/h (0 Bft) S-SO 157 0 min -0,9 C 2,8 C 0,0 km/h (0 Bft)
19.12.2019 09:35 0,7 C 6,7 C 1,5 C 3,0 C 3,0 C 2,3 C 89 % 91 % 1019,6 hPa 0,0 l/m 0,0 km/h (0 Bft) S-SO 157 0 min -0,9 C 3,0 C 0,0 km/h (0 Bft)
19.12.2019 09:40 0,9 C 6,7 C 1,5 C 3,1 C 3,1 C 2,2 C 89 % 91 % 1019,6 hPa 0,0 l/m 0,0 km/h (0 Bft) S-SO 157 0 min -0,7 C 3,1 C 0,0 km/h (0 Bft)
19.12.2019 09:45 0,9 C 6,7 C 1,7 C 3,3 C 3,3 C 2,4 C 89 % 91 % 1019,6 hPa 0,0 l/m 0,0 km/h (0 Bft) S-SO 157 0 min -0,7 C 3,3 C 0,0 km/h (0 Bft)
19.12.2019 09:50 1,2 C 6,7 C 2,0 C 3,9 C 3,9 C 2,7 C 89 % 91 % 1019,6 hPa 0,0 l/m 0,0 km/h (0 Bft) SW 225 0 min -0,4 C 3,9 C 0,0 km/h (0 Bft)
19.12.2019 09:55 1,4 C 6,7 C 2,3 C 4,4 C 4,4 C 3,0 C 89 % 91 % 1019,6 hPa 0,0 l/m 0,0 km/h (0 Bft) SW 225 0 min -0,2 C 4,4 C 0,0 km/h (0 Bft)
19.12.2019 10:00 2,0 C 6,7 C 2,6 C 5,3 C 5,3 C 3,3 C 89 % 91 % 1019,8 hPa 0,0 l/m 0,0 km/h (0 Bft) S-SW 202 5 min 0,4 C 5,3 C 0,0 km/h (0 Bft)
19.12.2019 10:05 2,3 C 6,8 C 2,9 C 5,5 C 5,5 C 3,2 C 89 % 91 % 1019,8 hPa 0,0 l/m 0,0 km/h (0 Bft) S-SW 202 0 min 0,7 C 5,5 C 0,0 km/h (0 Bft)
19.12.2019 10:10 2,7 C 6,8 C 3,5 C 6,1 C 6,1 C 3,4 C 89 % 91 % 1019,8 hPa 0,0 l/m 0,2 km/h (0 Bft) SW 225 5 min 1,1 C 6,1 C 0,0 km/h (0 Bft)
19.12.2019 10:15 3,0 C 6,8 C 3,9 C 6,6 C 6,6 C 3,6 C 89 % 91 % 1019,8 hPa 0,0 l/m 0,2 km/h (0 Bft) SW 225 5 min 1,4 C 6,6 C 2,3 km/h (1 Bft)
19.12.2019 10:20 3,7 C 6,8 C 4,5 C 7,1 C 7,1 C 3,4 C 89 % 91 % 1019,8 hPa 0,0 l/m 0,0 km/h (0 Bft) S 180 5 min 2,1 C 7,1 C 0,0 km/h (0 Bft)
19.12.2019 10:25 4,1 C 6,8 C 4,7 C 7,4 C 7,4 C 3,3 C 89 % 91 % 1019,8 hPa 0,0 l/m 0,0 km/h (0 Bft) SW 225 5 min 2,5 C 7,4 C 0,0 km/h (0 Bft)
19.12.2019 10:30 4,6 C 6,7 C 5,1 C 7,8 C 7,8 C 3,2 C 89 % 91 % 1019,8 hPa 0,0 l/m 0,0 km/h (0 Bft) SW 225 0 min 2,9 C 7,8 C 0,0 km/h (0 Bft)
19.12.2019 10:35 4,9 C 6,7 C 5,3 C 8,1 C 8,1 C 3,2 C 89 % 91 % 1019,8 hPa 0,0 l/m 0,0 km/h (0 Bft) SW 225 0 min 3,2 C 8,1 C 0,0 km/h (0 Bft)
19.12.2019 10:40 5,2 C 6,7 C 5,6 C 8,5 C 8,5 C 3,3 C 89 % 91 % 1019,0 hPa 0,0 l/m 0,2 km/h (0 Bft) S 180 5 min 3,5 C 8,5 C 1,8 km/h (1 Bft)
19.12.2019 10:45 5,3 C 6,7 C 5,9 C 8,9 C 8,9 C 3,6 C 89 % 92 % 1019,0 hPa 0,0 l/m 0,2 km/h (0 Bft) S 180 5 min 3,6 C 8,9 C 2,6 km/h (1 Bft)
19.12.2019 10:50 5,6 C 6,7 C 5,9 C 9,1 C 9,1 C 3,5 C 89 % 91 % 1019,0 hPa 0,0 l/m 0,0 km/h (0 Bft) W-SW 247 5 min 3,9 C 9,1 C 0,0 km/h (0 Bft)
19.12.2019 10:55 5,9 C 6,7 C 6,2 C 9,2 C 9,2 C 3,3 C 89 % 91 % 1019,0 hPa 0,0 l/m 0,0 km/h (0 Bft) SO 135 5 min 4,2 C 9,2 C 0,0 km/h (0 Bft)
19.12.2019 11:00 6,1 C 6,7 C 6,5 C 9,5 C 9,5 C 3,4 C 89 % 91 % 1018,6 hPa 0,0 l/m 0,0 km/h (0 Bft) S-SO 157 5 min 4,4 C 9,5 C 0,0 km/h (0 Bft)
19.12.2019 11:05 6,1 C 6,7 C 6,7 C 9,9 C 9,9 C 3,8 C 89 % 91 % 1018,6 hPa 0,0 l/m 0,0 km/h (0 Bft) S-SO 157 5 min 4,4 C 9,9 C 0,0 km/h (0 Bft)
19.12.2019 11:10 6,4 C 6,7 C 6,9 C 10,3 C 10,3 C 3,9 C 89 % 91 % 1018,6 hPa 0,0 l/m 0,0 km/h (0 Bft) S-SO 157 5 min 4,7 C 10,3 C 0,0 km/h (0 Bft)
19.12.2019 11:15 6,5 C 6,7 C 7,1 C 10,7 C 10,7 C 4,2 C 89 % 91 % 1018,6 hPa 0,0 l/m 0,2 km/h (0 Bft) SO 135 5 min 4,8 C 10,7 C 0,0 km/h (0 Bft)
19.12.2019 11:20 6,7 C 6,7 C 7,1 C 11,4 C 11,4 C 4,7 C 89 % 91 % 1018,8 hPa 0,0 l/m 0,2 km/h (0 Bft) SO 135 5 min 5,0 C 11,4 C 0,0 km/h (0 Bft)
19.12.2019 11:25 6,7 C 6,7 C 7,2 C 12,0 C 12,0 C 5,3 C 89 % 91 % 1018,8 hPa 0,0 l/m 0,2 km/h (0 Bft) SO 135 5 min 5,0 C 12,0 C 3,1 km/h (1 Bft)
19.12.2019 11:30 6,8 C 6,7 C 7,4 C 12,3 C 12,3 C 5,5 C 89 % 91 % 1018,8 hPa 0,0 l/m 0,5 km/h (0 Bft) SO 135 5 min 5,1 C 12,3 C 4,0 km/h (1 Bft)
19.12.2019 11:35 7,1 C 6,7 C 7,5 C 12,2 C 12,2 C 5,1 C 89 % 91 % 1018,8 hPa 0,0 l/m 1,3 km/h (1 Bft) O-NO 67 5 min 5,4 C 12,2 C 3,5 km/h (1 Bft)
19.12.2019 11:40 7,2 C 6,7 C 7,9 C 12,1 C 12,1 C 4,9 C 89 % 91 % 1018,2 hPa 0,0 l/m 2,1 km/h (1 Bft) O-NO 67 5 min 5,5 C 12,1 C 2,7 km/h (1 Bft)
19.12.2019 11:45 7,5 C 6,7 C 8,3 C 12,1 C 12,1 C 4,6 C 89 % 91 % 1018,2 hPa 0,0 l/m 2,1 km/h (1 Bft) N-NO 22 5 min 5,8 C 12,1 C 2,7 km/h (1 Bft)
19.12.2019 11:50 7,6 C 6,7 C 8,5 C 12,0 C 12,0 C 4,4 C 89 % 90 % 1018,2 hPa 0,0 l/m 1,6 km/h (1 Bft) O-NO 67 5 min 5,9 C 12,0 C 0,0 km/h (0 Bft)
19.12.2019 11:55 7,5 C 6,6 C 8,5 C 11,7 C 11,7 C 4,2 C 88 % 90 % 1018,2 hPa 0,0 l/m 1,0 km/h (0 Bft) N-NO 22 5 min 5,6 C 11,7 C 0,0 km/h (0 Bft)
19.12.2019 12:00 7,5 C 6,6 C 8,5 C 11,3 C 11,3 C 3,8 C 88 % 90 % 1017,6 hPa 0,0 l/m 0,3 km/h (0 Bft) N-NO 22 5 min 5,6 C 11,3 C 0,0 km/h (0 Bft)
19.12.2019 12:05 7,6 C 6,6 C 8,6 C 11,3 C 11,3 C 3,7 C 88 % 89 % 1017,6 hPa 0,0 l/m 0,3 km/h (0 Bft) NO 45 5 min 5,7 C 11,3 C 1,9 km/h (1 Bft)
19.12.2019 12:10 8,0 C 6,5 C 8,7 C 11,2 C 11,2 C 3,2 C 89 % 89 % 1017,6 hPa 0,0 l/m 2,7 km/h (1 Bft) O-NO 67 0 min 6,3 C 11,2 C 4,5 km/h (1 Bft)
19.12.2019 12:15 8,0 C 6,5 C 9,0 C 11,2 C 11,2 C 3,2 C 89 % 87 % 1017,6 hPa 0,0 l/m 4,0 km/h (1 Bft) O-NO 67 0 min 6,3 C 11,2 C 6,9 km/h (2 Bft)
19.12.2019 12:20 8,3 C 6,5 C 9,0 C 11,3 C 11,3 C 3,0 C 89 % 87 % 1017,1 hPa 0,0 l/m 5,1 km/h (1 Bft) O-NO 67 0 min 6,6 C 11,3 C 6,8 km/h (2 Bft)
19.12.2019 12:25 8,4 C 6,5 C 9,1 C 11,2 C 11,2 C 2,8 C 88 % 86 % 1017,1 hPa 0,0 l/m 5,8 km/h (2 Bft) NO 45 0 min 6,5 C 11,2 C 8,4 km/h (2 Bft)
19.12.2019 12:30 8,6 C 6,5 C 9,4 C 11,3 C 11,3 C 2,7 C 88 % 85 % 1017,1 hPa 0,0 l/m 6,4 km/h (2 Bft) NO 45 0 min 6,7 C 11,3 C 8,7 km/h (2 Bft)
19.12.2019 12:35 8,9 C 6,5 C 9,5 C 11,4 C 11,4 C 2,5 C 88 % 85 % 1017,1 hPa 0,0 l/m 6,3 km/h (2 Bft) NO 45 0 min 7,0 C 11,4 C 6,3 km/h (2 Bft)
19.12.2019 12:40 9,1 C 6,5 C 9,7 C 11,8 C 11,8 C 2,7 C 88 % 84 % 1016,8 hPa 0,0 l/m 5,3 km/h (1 Bft) NO 45 0 min 7,2 C 11,8 C 4,2 km/h (1 Bft)
19.12.2019 12:45 9,2 C 6,5 C 9,8 C 12,0 C 12,0 C 2,8 C 88 % 84 % 1016,8 hPa 0,0 l/m 4,8 km/h (1 Bft) NO 45 0 min 7,3 C 12,0 C 8,0 km/h (2 Bft)
19.12.2019 12:50 9,4 C 6,5 C 9,7 C 12,0 C 12,0 C 2,6 C 88 % 83 % 1016,8 hPa 0,0 l/m 4,8 km/h (1 Bft) O-NO 67 0 min 7,5 C 12,0 C 7,4 km/h (2 Bft)
19.12.2019 12:55 9,6 C 6,6 C 9,7 C 11,6 C 11,6 C 2,0 C 88 % 83 % 1016,8 hPa 0,0 l/m 5,6 km/h (1 Bft) NO 45 0 min 7,7 C 11,6 C 9,5 km/h (2 Bft)
19.12.2019 13:00 10,1 C 6,6 C 9,7 C 11,4 C 11,4 C 1,3 C 88 % 83 % 1016,5 hPa 0,0 l/m 6,1 km/h (2 Bft) O-NO 67 0 min 8,2 C 11,4 C 7,4 km/h (2 Bft)
19.12.2019 13:05 10,1 C 6,6 C 9,6 C 11,6 C 11,6 C 1,5 C 87 % 83 % 1016,5 hPa 0,0 l/m 5,6 km/h (1 Bft) O-NO 67 0 min 8,0 C 11,6 C 10,5 km/h (2 Bft)
19.12.2019 13:10 10,4 C 6,6 C 9,6 C 11,4 C 11,4 C 1,0 C 87 % 83 % 1016,5 hPa 0,0 l/m 6,0 km/h (2 Bft) O-NO 67 0 min 8,3 C 11,4 C 6,9 km/h (2 Bft)
19.12.2019 13:15 10,5 C 6,6 C 9,6 C 11,3 C 11,3 C 0,8 C 86 % 83 % 1016,5 hPa 0,0 l/m 6,6 km/h (2 Bft) NO 45 0 min 8,3 C 11,3 C 10,9 km/h (2 Bft)
19.12.2019 13:20 10,5 C 6,6 C 9,6 C 11,2 C 11,2 C 0,7 C 86 % 83 % 1015,9 hPa 0,0 l/m 6,4 km/h (2 Bft) NO 45 0 min 8,3 C 11,2 C 7,7 km/h (2 Bft)
19.12.2019 13:25 10,6 C 6,6 C 9,5 C 11,1 C 11,1 C 0,5 C 86 % 83 % 1015,9 hPa 0,0 l/m 6,6 km/h (2 Bft) NO 45 0 min 8,4 C 11,1 C 4,5 km/h (1 Bft)
19.12.2019 13:30 10,7 C 6,6 C 9,5 C 11,2 C 11,2 C 0,5 C 85 % 83 % 1015,9 hPa 0,0 l/m 6,1 km/h (2 Bft) O-NO 67 0 min 8,3 C 11,2 C 4,7 km/h (1 Bft)
19.12.2019 13:35 10,5 C 6,6 C 9,5 C 11,2 C 11,2 C 0,7 C 85 % 83 % 1015,9 hPa 0,0 l/m 5,5 km/h (1 Bft) O-NO 67 0 min 8,1 C 11,2 C 7,6 km/h (2 Bft)
19.12.2019 13:40 10,6 C 6,6 C 9,5 C 11,2 C 11,2 C 0,6 C 84 % 83 % 1015,8 hPa 0,0 l/m 5,3 km/h (1 Bft) O-NO 67 0 min 8,0 C 11,2 C 8,7 km/h (2 Bft)
19.12.2019 13:45 10,5 C 6,6 C 9,5 C 10,9 C 10,9 C 0,4 C 84 % 83 % 1015,8 hPa 0,0 l/m 6,1 km/h (2 Bft) O-NO 67 0 min 7,9 C 10,9 C 7,7 km/h (2 Bft)
19.12.2019 13:50 10,5 C 6,6 C 9,5 C 10,9 C 10,9 C 0,4 C 84 % 83 % 1015,8 hPa 0,0 l/m 6,1 km/h (2 Bft) O 90 0 min 7,9 C 10,9 C 6,0 km/h (2 Bft)
19.12.2019 13:55 10,5 C 6,6 C 9,5 C 11,0 C 11,0 C 0,5 C 83 % 82 % 1015,8 hPa 0,0 l/m 5,6 km/h (1 Bft) O-NO 67 0 min 7,7 C 11,0 C 11,3 km/h (2 Bft)
19.12.2019 14:00 10,5 C 6,6 C 9,5 C 10,9 C 10,9 C 0,4 C 83 % 82 % 1015,5 hPa 0,0 l/m 6,0 km/h (2 Bft) O-NO 67 0 min 7,7 C 10,9 C 12,9 km/h (3 Bft)
19.12.2019 14:05 10,5 C 6,6 C 9,6 C 10,7 C 10,7 C 0,2 C 82 % 82 % 1015,5 hPa 0,0 l/m 6,9 km/h (2 Bft) O-NO 67 0 min 7,6 C 10,7 C 15,4 km/h (3 Bft)
19.12.2019 14:10 10,4 C 6,6 C 9,5 C 10,7 C 10,7 C 0,3 C 81 % 82 % 1015,5 hPa 0,0 l/m 7,1 km/h (2 Bft) N-NO 22 0 min 7,3 C 10,7 C 8,7 km/h (2 Bft)
19.12.2019 14:15 10,4 C 6,6 C 9,4 C 10,9 C 10,9 C 0,5 C 81 % 82 % 1015,5 hPa 0,0 l/m 5,8 km/h (2 Bft) O-NO 67 0 min 7,3 C 10,9 C 10,3 km/h (2 Bft)
19.12.2019 14:20 10,3 C 6,8 C 9,4 C 10,9 C 10,9 C 0,6 C 81 % 82 % 1015,1 hPa 0,0 l/m 5,8 km/h (2 Bft) O 90 0 min 7,2 C 10,9 C 6,8 km/h (2 Bft)
19.12.2019 14:25 10,3 C 6,8 C 9,3 C 10,7 C 10,7 C 0,4 C 81 % 81 % 1015,1 hPa 0,0 l/m 6,3 km/h (2 Bft) O-NO 67 0 min 7,2 C 10,7 C 13,4 km/h (3 Bft)
19.12.2019 14:30 10,1 C 6,8 C 9,3 C 10,3 C 10,3 C 0,2 C 81 % 81 % 1015,1 hPa 0,0 l/m 6,6 km/h (2 Bft) NO 45 0 min 7,0 C 10,3 C 7,2 km/h (2 Bft)
19.12.2019 14:35 10,1 C 6,8 C 9,2 C 10,2 C 10,2 C 0,1 C 81 % 81 % 1015,1 hPa 0,0 l/m 6,4 km/h (2 Bft) O 90 0 min 7,0 C 10,2 C 4,7 km/h (1 Bft)
19.12.2019 14:40 9,9 C 6,8 C 9,0 C 10,3 C 10,3 C 0,4 C 81 % 82 % 1015,0 hPa 0,0 l/m 5,1 km/h (1 Bft) O-NO 67 0 min 6,8 C 10,3 C 4,5 km/h (1 Bft)
19.12.2019 14:45 9,9 C 6,8 C 8,8 C 10,2 C 10,2 C 0,3 C 81 % 82 % 1015,0 hPa 0,0 l/m 4,8 km/h (1 Bft) O-NO 67 0 min 6,8 C 10,2 C 5,1 km/h (1 Bft)
19.12.2019 14:50 9,7 C 6,8 C 8,7 C 10,1 C 10,1 C 0,4 C 81 % 82 % 1015,0 hPa 0,0 l/m 4,2 km/h (1 Bft) O-NO 67 0 min 6,6 C 10,1 C 0,0 km/h (0 Bft)
19.12.2019 14:55 9,7 C 6,8 C 8,6 C 10,0 C 10,0 C 0,3 C 81 % 82 % 1015,0 hPa 0,0 l/m 2,3 km/h (1 Bft) O 90 0 min 6,6 C 10,0 C 0,0 km/h (0 Bft)
19.12.2019 15:00 9,6 C 6,8 C 8,6 C 9,8 C 9,8 C 0,2 C 81 % 82 % 1015,0 hPa 0,0 l/m 1,0 km/h (0 Bft) W 270 0 min 6,5 C 9,8 C 3,5 km/h (1 Bft)
19.12.2019 15:05 9,5 C 6,8 C 8,5 C 9,7 C 9,7 C 0,2 C 81 % 82 % 1015,0 hPa 0,0 l/m 1,8 km/h (1 Bft) W-NW 292 0 min 6,4 C 9,7 C 3,2 km/h (1 Bft)
19.12.2019 15:10 9,5 C 6,8 C 8,3 C 9,5 C 9,4 C 0,0 C 81 % 82 % 1015,0 hPa 0,0 l/m 1,9 km/h (1 Bft) NO 45 0 min 6,4 C 9,4 C 0,0 km/h (0 Bft)
19.12.2019 15:15 9,2 C 6,8 C 8,2 C 9,3 C 9,3 C 0,1 C 80 % 82 % 1015,0 hPa 0,0 l/m 2,1 km/h (1 Bft) NO 45 0 min 5,9 C 9,3 C 4,3 km/h (1 Bft)
19.12.2019 15:20 9,2 C 6,8 C 8,2 C 9,2 C 9,1 C 0,0 C 80 % 82 % 1014,9 hPa 0,0 l/m 2,6 km/h (1 Bft) N-NO 22 0 min 5,9 C 9,1 C 1,6 km/h (1 Bft)
19.12.2019 15:25 9,1 C 6,8 C 8,1 C 9,0 C 8,9 C 0,0 C 80 % 82 % 1014,9 hPa 0,0 l/m 2,7 km/h (1 Bft) O-NO 67 0 min 5,8 C 8,9 C 2,1 km/h (1 Bft)
19.12.2019 15:30 9,0 C 6,8 C 7,9 C 8,9 C 8,7 C 0,0 C 80 % 82 % 1014,9 hPa 0,0 l/m 2,6 km/h (1 Bft) O 90 0 min 5,7 C 8,7 C 2,1 km/h (1 Bft)
19.12.2019 15:35 8,8 C 6,8 C 7,8 C 8,7 C 8,6 C 0,0 C 80 % 82 % 1014,9 hPa 0,0 l/m 2,3 km/h (1 Bft) O 90 0 min 5,5 C 8,6 C 0,0 km/h (0 Bft)
19.12.2019 15:40 8,7 C 6,8 C 7,6 C 8,6 C 8,3 C 0,0 C 81 % 83 % 1015,1 hPa 0,0 l/m 1,8 km/h (1 Bft) O-NO 67 0 min 5,6 C 8,3 C 2,1 km/h (1 Bft)
19.12.2019 15:45 8,7 C 6,9 C 7,5 C 8,5 C 8,2 C 0,0 C 81 % 83 % 1015,1 hPa 0,0 l/m 1,6 km/h (1 Bft) O-NO 67 0 min 5,6 C 8,2 C 3,9 km/h (1 Bft)
19.12.2019 15:50 8,5 C 6,9 C 7,5 C 8,3 C 7,9 C 0,0 C 81 % 83 % 1015,1 hPa 0,0 l/m 1,4 km/h (1 Bft) O-NO 67 0 min 5,4 C 7,9 C 1,6 km/h (1 Bft)
19.12.2019 15:55 8,4 C 6,9 C 7,4 C 8,2 C 7,8 C 0,0 C 81 % 83 % 1015,1 hPa 0,0 l/m 1,3 km/h (1 Bft) O-SO 112 0 min 5,3 C 7,8 C 1,6 km/h (1 Bft)
19.12.2019 16:00 8,4 C 6,9 C 7,3 C 8,1 C 7,6 C 0,0 C 81 % 83 % 1014,8 hPa 0,0 l/m 1,3 km/h (1 Bft) O 90 0 min 5,3 C 7,6 C 1,6 km/h (1 Bft)
19.12.2019 16:05 8,4 C 6,9 C 7,2 C 8,1 C 7,6 C 0,0 C 81 % 83 % 1014,8 hPa 0,0 l/m 1,9 km/h (1 Bft) O-NO 67 0 min 5,3 C 7,6 C 3,7 km/h (1 Bft)
19.12.2019 16:10 8,2 C 6,9 C 7,1 C 7,9 C 7,2 C 0,0 C 81 % 83 % 1014,8 hPa 0,0 l/m 4,5 km/h (1 Bft) O-NO 67 0 min 5,1 C 7,2 C 7,6 km/h (2 Bft)
19.12.2019 16:15 8,3 C 6,9 C 7,1 C 7,8 C 6,8 C 0,0 C 82 % 84 % 1014,8 hPa 0,0 l/m 6,3 km/h (2 Bft) NO 45 0 min 5,4 C 5,7 C 9,7 km/h (2 Bft)
19.12.2019 16:20 8,3 C 6,9 C 7,0 C 7,8 C 6,9 C 0,0 C 82 % 84 % 1014,4 hPa 0,0 l/m 6,3 km/h (2 Bft) O 90 0 min 5,4 C 5,8 C 0,0 km/h (0 Bft)
19.12.2019 16:25 8,1 C 6,9 C 6,7 C 7,9 C 7,4 C 0,0 C 82 % 84 % 1014,4 hPa 0,0 l/m 4,0 km/h (1 Bft) NO 45 0 min 5,2 C 7,4 C 3,4 km/h (1 Bft)
19.12.2019 16:30 8,0 C 7,0 C 6,6 C 7,8 C 7,3 C 0,0 C 82 % 84 % 1014,4 hPa 0,0 l/m 1,1 km/h (1 Bft) NO 45 0 min 5,1 C 7,3 C 1,8 km/h (1 Bft)
19.12.2019 16:35 7,8 C 7,0 C 6,4 C 7,6 C 7,1 C 0,0 C 82 % 84 % 1014,4 hPa 0,0 l/m 1,0 km/h (0 Bft) N-NO 22 0 min 4,9 C 7,1 C 0,0 km/h (0 Bft)
19.12.2019 16:40 7,6 C 7,0 C 6,2 C 7,3 C 6,8 C 0,0 C 82 % 84 % 1015,1 hPa 0,0 l/m 1,0 km/h (0 Bft) NO 45 0 min 4,7 C 6,8 C 4,3 km/h (1 Bft)
19.12.2019 16:45 7,7 C 7,0 C 6,2 C 7,4 C 6,8 C 0,0 C 82 % 85 % 1015,1 hPa 0,0 l/m 2,1 km/h (1 Bft) O-NO 67 0 min 4,8 C 6,8 C 3,2 km/h (1 Bft)
19.12.2019 16:50 7,5 C 7,1 C 6,1 C 7,3 C 6,8 C 0,0 C 83 % 85 % 1015,1 hPa 0,0 l/m 3,4 km/h (1 Bft) N-NO 22 0 min 4,8 C 6,8 C 2,6 km/h (1 Bft)
19.12.2019 16:55 7,5 C 7,1 C 5,9 C 7,2 C 6,7 C 0,0 C 83 % 84 % 1015,1 hPa 0,0 l/m 2,1 km/h (1 Bft) N-NO 22 0 min 4,8 C 6,7 C 0,0 km/h (0 Bft)
19.12.2019 17:00 7,2 C 7,1 C 5,6 C 7,0 C 6,5 C 0,0 C 83 % 84 % 1014,1 hPa 0,0 l/m 0,6 km/h (0 Bft) N-NO 22 0 min 4,5 C 6,5 C 0,0 km/h (0 Bft)
19.12.2019 17:05 7,1 C 7,1 C 5,5 C 6,8 C 6,3 C 0,0 C 83 % 85 % 1014,1 hPa 0,0 l/m 0,3 km/h (0 Bft) N-NO 22 0 min 4,4 C 6,3 C 0,0 km/h (0 Bft)
19.12.2019 17:10 6,9 C 7,1 C 5,2 C 6,6 C 6,0 C 0,0 C 82 % 85 % 1014,1 hPa 0,0 l/m 0,2 km/h (0 Bft) N-NO 22 0 min 4,0 C 6,0 C 0,0 km/h (0 Bft)
19.12.2019 17:15 6,9 C 7,1 C 5,0 C 6,5 C 5,8 C 0,0 C 83 % 85 % 1014,1 hPa 0,0 l/m 0,2 km/h (0 Bft) N-NO 22 0 min 4,2 C 5,8 C 0,0 km/h (0 Bft)
19.12.2019 17:20 6,7 C 7,2 C 4,8 C 6,4 C 5,8 C 0,0 C 83 % 85 % 1013,9 hPa 0,0 l/m 1,0 km/h (0 Bft) O-NO 67 0 min 4,0 C 5,8 C 2,9 km/h (1 Bft)
19.12.2019 17:25 6,7 C 7,2 C 4,9 C 6,4 C 5,9 C 0,0 C 84 % 86 % 1013,9 hPa 0,0 l/m 1,4 km/h (1 Bft) O-NO 67 0 min 4,2 C 5,9 C 0,0 km/h (0 Bft)
19.12.2019 17:30 6,7 C 7,2 C 4,8 C 6,4 C 5,8 C 0,0 C 84 % 86 % 1013,9 hPa 0,0 l/m 0,6 km/h (0 Bft) O-NO 67 0 min 4,2 C 5,8 C 0,0 km/h (0 Bft)
19.12.2019 17:35 6,6 C 7,2 C 4,7 C 6,3 C 5,7 C 0,0 C 84 % 86 % 1013,9 hPa 0,0 l/m 0,0 km/h (0 Bft) O-NO 67 0 min 4,1 C 5,7 C 0,0 km/h (0 Bft)
19.12.2019 17:40 6,5 C 7,2 C 4,5 C 6,2 C 5,7 C 0,0 C 84 % 86 % 1013,9 hPa 0,0 l/m 0,5 km/h (0 Bft) NO 45 0 min 4,0 C 5,7 C 1,6 km/h (1 Bft)
19.12.2019 17:45 6,4 C 7,2 C 4,4 C 6,1 C 5,6 C 0,0 C 84 % 86 % 1013,9 hPa 0,0 l/m 0,5 km/h (0 Bft) O-NO 67 0 min 3,9 C 5,6 C 0,0 km/h (0 Bft)
19.12.2019 17:50 6,2 C 7,2 C 4,3 C 6,0 C 5,5 C 0,0 C 84 % 86 % 1013,9 hPa 0,0 l/m 0,2 km/h (0 Bft) NO 45 0 min 3,7 C 5,5 C 0,0 km/h (0 Bft)
19.12.2019 17:55 6,1 C 7,2 C 4,3 C 5,8 C 5,3 C 0,0 C 84 % 86 % 1013,9 hPa 0,0 l/m 0,3 km/h (0 Bft) N-NO 22 0 min 3,6 C 5,3 C 2,1 km/h (1 Bft)
19.12.2019 18:00 6,1 C 7,2 C 4,1 C 5,7 C 5,0 C 0,0 C 85 % 86 % 1013,8 hPa 0,0 l/m 0,5 km/h (0 Bft) N-NO 22 0 min 3,8 C 5,0 C 0,0 km/h (0 Bft)
19.12.2019 18:05 5,9 C 7,2 C 4,0 C 5,5 C 4,8 C 0,0 C 84 % 87 % 1013,8 hPa 0,0 l/m 1,0 km/h (0 Bft) NO 45 0 min 3,4 C 4,8 C 1,6 km/h (1 Bft)
19.12.2019 18:10 5,6 C 7,2 C 3,8 C 5,3 C 4,6 C 0,0 C 84 % 86 % 1013,8 hPa 0,0 l/m 0,6 km/h (0 Bft) O-NO 67 0 min 3,1 C 4,6 C 0,0 km/h (0 Bft)
19.12.2019 18:15 5,5 C 7,2 C 3,7 C 5,1 C 4,3 C 0,0 C 84 % 86 % 1013,8 hPa 0,0 l/m 0,5 km/h (0 Bft) O-NO 67 0 min 3,0 C 4,3 C 2,9 km/h (1 Bft)
19.12.2019 18:20 5,2 C 7,2 C 3,5 C 4,9 C 4,3 C 0,0 C 84 % 86 % 1013,6 hPa 0,0 l/m 0,2 km/h (0 Bft) NO 45 0 min 2,7 C 4,3 C 0,0 km/h (0 Bft)
19.12.2019 18:25 5,2 C 7,2 C 3,5 C 4,9 C 4,2 C 0,0 C 85 % 87 % 1013,6 hPa 0,0 l/m 0,2 km/h (0 Bft) O-NO 67 0 min 2,9 C 4,2 C 0,0 km/h (0 Bft)
19.12.2019 18:30 5,1 C 7,2 C 3,3 C 4,8 C 4,2 C 0,0 C 85 % 87 % 1013,6 hPa 0,0 l/m 0,0 km/h (0 Bft) O-NO 67 0 min 2,8 C 4,2 C 0,0 km/h (0 Bft)
19.12.2019 18:35 5,1 C 7,2 C 3,2 C 4,8 C 4,1 C 0,0 C 85 % 87 % 1013,6 hPa 0,0 l/m 0,0 km/h (0 Bft) O-NO 67 0 min 2,8 C 4,1 C 0,0 km/h (0 Bft)
19.12.2019 18:40 4,8 C 7,2 C 3,1 C 4,5 C 3,9 C 0,0 C 85 % 87 % 1013,4 hPa 0,0 l/m 0,0 km/h (0 Bft) N-NO 22 0 min 2,5 C 3,9 C 0,0 km/h (0 Bft)
19.12.2019 18:45 4,8 C 7,2 C 3,1 C 4,5 C 3,8 C 0,0 C 85 % 87 % 1013,4 hPa 0,0 l/m 0,0 km/h (0 Bft) N-NO 22 0 min 2,5 C 3,8 C 0,0 km/h (0 Bft)
19.12.2019 18:50 4,6 C 7,2 C 3,0 C 4,3 C 3,7 C 0,0 C 86 % 87 % 1013,4 hPa 0,0 l/m 0,0 km/h (0 Bft) N-NO 22 0 min 2,5 C 3,7 C 0,0 km/h (0 Bft)
19.12.2019 18:55 4,5 C 7,2 C 2,9 C 4,2 C 3,6 C 0,0 C 86 % 87 % 1013,4 hPa 0,0 l/m 0,0 km/h (0 Bft) N-NO 22 0 min 2,4 C 3,6 C 0,0 km/h (0 Bft)
19.12.2019 19:00 4,4 C 7,4 C 2,7 C 4,1 C 3,6 C 0,0 C 86 % 87 % 1013,4 hPa 0,0 l/m 0,0 km/h (0 Bft) N-NO 22 0 min 2,3 C 3,6 C 0,0 km/h (0 Bft)
19.12.2019 19:05 4,3 C 7,2 C 2,6 C 4,1 C 3,7 C 0,0 C 86 % 87 % 1013,4 hPa 0,0 l/m 0,0 km/h (0 Bft) N-NO 22 0 min 2,2 C 3,7 C 0,0 km/h (0 Bft)
19.12.2019 19:10 4,3 C 7,4 C 2,5 C 4,1 C 3,6 C 0,0 C 86 % 87 % 1013,4 hPa 0,0 l/m 0,0 km/h (0 Bft) N-NO 22 0 min 2,2 C 3,6 C 0,0 km/h (0 Bft)
19.12.2019 19:15 4,1 C 7,2 C 2,5 C 3,9 C 3,4 C 0,0 C 86 % 88 % 1013,4 hPa 0,0 l/m 0,0 km/h (0 Bft) N-NO 22 0 min 2,0 C 3,4 C 0,0 km/h (0 Bft)
19.12.2019 19:20 3,9 C 7,2 C 2,4 C 3,6 C 3,1 C 0,0 C 86 % 88 % 1012,9 hPa 0,0 l/m 0,0 km/h (0 Bft) N-NO 22 0 min 1,8 C 3,1 C 0,0 km/h (0 Bft)
19.12.2019 19:25 3,9 C 7,2 C 2,3 C 3,6 C 2,9 C 0,0 C 86 % 88 % 1012,9 hPa 0,0 l/m 0,0 km/h (0 Bft) N-NO 22 0 min 1,8 C 2,9 C 0,0 km/h (0 Bft)
19.12.2019 19:30 3,6 C 7,2 C 2,3 C 3,2 C 2,5 C 0,0 C 86 % 88 % 1012,9 hPa 0,0 l/m 0,3 km/h (0 Bft) N-NO 22 0 min 1,5 C 2,5 C 1,9 km/h (1 Bft)
19.12.2019 19:35 3,6 C 7,2 C 2,2 C 3,2 C 2,5 C 0,0 C 86 % 88 % 1012,9 hPa 0,0 l/m 0,3 km/h (0 Bft) N-NO 22 0 min 1,5 C 2,5 C 0,0 km/h (0 Bft)
19.12.2019 19:40 3,4 C 7,2 C 2,1 C 2,9 C 2,0 C 0,0 C 86 % 88 % 1012,5 hPa 0,0 l/m 0,2 km/h (0 Bft) N-NO 22 0 min 1,3 C 2,0 C 0,0 km/h (0 Bft)
19.12.2019 19:45 3,2 C 7,2 C 2,0 C 2,8 C 1,9 C 0,0 C 86 % 88 % 1012,5 hPa 0,0 l/m 0,0 km/h (0 Bft) N-NO 22 0 min 1,1 C 1,9 C 0,0 km/h (0 Bft)
19.12.2019 19:50 3,1 C 7,3 C 1,9 C 2,7 C 2,0 C 0,0 C 86 % 88 % 1012,5 hPa 0,0 l/m 0,5 km/h (0 Bft) NO 45 0 min 1,0 C 2,0 C 0,0 km/h (0 Bft)
19.12.2019 19:55 3,0 C 7,3 C 1,8 C 2,7 C 2,0 C 0,0 C 86 % 88 % 1012,5 hPa 0,0 l/m 0,5 km/h (0 Bft) NO 45 0 min 0,9 C 2,0 C 0,0 km/h (0 Bft)
19.12.2019 20:00 2,9 C 7,3 C 1,7 C 2,6 C 1,9 C 0,0 C 87 % 88 % 1012,6 hPa 0,0 l/m 0,0 km/h (0 Bft) NO 45 0 min 1,0 C 1,9 C 0,0 km/h (0 Bft)
19.12.2019 20:05 2,8 C 7,3 C 1,7 C 2,5 C 1,9 C 0,0 C 87 % 88 % 1012,6 hPa 0,0 l/m 0,0 km/h (0 Bft) NO 45 0 min 0,9 C 1,9 C 0,0 km/h (0 Bft)
19.12.2019 20:10 2,7 C 7,3 C 1,5 C 2,4 C 1,8 C 0,0 C 87 % 88 % 1012,6 hPa 0,0 l/m 0,0 km/h (0 Bft) NO 45 0 min 0,8 C 1,8 C 0,0 km/h (0 Bft)
19.12.2019 20:15 2,7 C 7,3 C 1,5 C 2,4 C 1,7 C 0,0 C 87 % 88 % 1012,6 hPa 0,0 l/m 0,0 km/h (0 Bft) NO 45 0 min 0,8 C 1,7 C 0,0 km/h (0 Bft)
19.12.2019 20:20 2,4 C 7,3 C 1,4 C 2,1 C 1,6 C 0,0 C 86 % 88 % 1012,1 hPa 0,0 l/m 0,0 km/h (0 Bft) NO 45 0 min 0,3 C 1,6 C 0,0 km/h (0 Bft)
19.12.2019 20:25 2,4 C 7,3 C 1,4 C 2,1 C 1,5 C 0,0 C 86 % 88 % 1012,1 hPa 0,0 l/m 0,0 km/h (0 Bft) NO 45 0 min 0,3 C 1,5 C 0,0 km/h (0 Bft)
19.12.2019 20:30 2,4 C 7,3 C 1,5 C 2,2 C 1,8 C 0,0 C 87 % 88 % 1012,1 hPa 0,0 l/m 0,6 km/h (0 Bft) O-NO 67 0 min 0,5 C 1,8 C 1,6 km/h (1 Bft)
19.12.2019 20:35 2,3 C 7,3 C 1,5 C 2,2 C 2,0 C 0,0 C 87 % 89 % 1012,1 hPa 0,0 l/m 0,8 km/h (0 Bft) O-NO 67 0 min 0,4 C 2,0 C 0,0 km/h (0 Bft)
19.12.2019 20:40 2,3 C 7,3 C 1,5 C 2,1 C 1,8 C 0,0 C 87 % 89 % 1012,3 hPa 0,0 l/m 0,5 km/h (0 Bft) O 90 0 min 0,4 C 1,8 C 0,0 km/h (0 Bft)
19.12.2019 20:45 2,1 C 7,3 C 1,3 C 1,9 C 1,4 C 0,0 C 87 % 89 % 1012,3 hPa 0,0 l/m 0,3 km/h (0 Bft) O 90 0 min 0,2 C 1,4 C 0,0 km/h (0 Bft)
19.12.2019 20:50 1,9 C 7,2 C 1,1 C 1,6 C 1,0 C 0,0 C 87 % 88 % 1012,3 hPa 0,0 l/m 0,0 km/h (0 Bft) O-NO 67 0 min -0,0 C 1,0 C 0,0 km/h (0 Bft)
19.12.2019 20:55 1,9 C 7,2 C 1,1 C 1,6 C 0,9 C 0,0 C 87 % 89 % 1012,3 hPa 0,0 l/m 0,3 km/h (0 Bft) O-NO 67 0 min -0,0 C 0,9 C 0,0 km/h (0 Bft)
19.12.2019 21:00 1,6 C 7,2 C 0,9 C 1,3 C 0,8 C 0,0 C 87 % 89 % 1012,2 hPa 0,0 l/m 0,3 km/h (0 Bft) O-NO 67 0 min -0,3 C 0,8 C 0,0 km/h (0 Bft)
19.12.2019 21:05 1,6 C 7,2 C 1,0 C 1,3 C 0,8 C 0,0 C 87 % 89 % 1012,2 hPa 0,0 l/m 0,6 km/h (0 Bft) NO 45 0 min -0,3 C 0,8 C 2,4 km/h (1 Bft)
19.12.2019 21:10 1,6 C 7,2 C 0,8 C 1,4 C 1,0 C 0,0 C 87 % 89 % 1012,2 hPa 0,0 l/m 0,8 km/h (0 Bft) NO 45 0 min -0,3 C 1,0 C 0,0 km/h (0 Bft)
19.12.2019 21:15 1,5 C 7,2 C 0,8 C 1,3 C 1,0 C 0,0 C 88 % 89 % 1012,2 hPa 0,0 l/m 0,5 km/h (0 Bft) O-NO 67 0 min -0,3 C 1,0 C 0,0 km/h (0 Bft)
19.12.2019 21:20 1,5 C 7,2 C 0,8 C 1,2 C 0,7 C 0,0 C 88 % 89 % 1011,7 hPa 0,0 l/m 0,0 km/h (0 Bft) O-NO 67 0 min -0,3 C 0,7 C 0,0 km/h (0 Bft)
19.12.2019 21:25 1,4 C 7,2 C 0,7 C 1,1 C 0,5 C 0,0 C 88 % 89 % 1011,7 hPa 0,0 l/m 0,0 km/h (0 Bft) O-NO 67 0 min -0,4 C 0,5 C 0,0 km/h (0 Bft)
19.12.2019 21:30 1,2 C 7,2 C 0,7 C 0,9 C 0,4 C 0,0 C 88 % 89 % 1011,7 hPa 0,0 l/m 0,0 km/h (0 Bft) O-NO 67 0 min -0,6 C 0,4 C 0,0 km/h (0 Bft)
19.12.2019 21:35 1,2 C 7,2 C 0,6 C 0,9 C 0,4 C 0,0 C 88 % 89 % 1011,7 hPa 0,0 l/m 0,0 km/h (0 Bft) O-NO 67 0 min -0,6 C 0,4 C 0,0 km/h (0 Bft)
19.12.2019 21:40 1,1 C 7,2 C 0,5 C 0,9 C 0,5 C 0,0 C 88 % 89 % 1011,6 hPa 0,0 l/m 0,0 km/h (0 Bft) O-NO 67 0 min -0,7 C 0,5 C 0,0 km/h (0 Bft)
19.12.2019 21:45 1,1 C 7,2 C 0,6 C 0,9 C 0,5 C 0,0 C 88 % 89 % 1011,6 hPa 0,0 l/m 0,0 km/h (0 Bft) O 90 0 min -0,7 C 0,5 C 0,0 km/h (0 Bft)
19.12.2019 21:50 1,1 C 7,1 C 0,4 C 0,9 C 0,5 C 0,0 C 88 % 89 % 1011,6 hPa 0,0 l/m 0,0 km/h (0 Bft) O 90 0 min -0,7 C 0,5 C 0,0 km/h (0 Bft)
19.12.2019 21:55 1,0 C 7,1 C 0,3 C 0,7 C 0,2 C 0,0 C 88 % 89 % 1011,6 hPa 0,0 l/m 0,0 km/h (0 Bft) O 90 0 min -0,8 C 0,2 C 0,0 km/h (0 Bft)
19.12.2019 22:00 0,8 C 7,1 C 0,2 C 0,6 C 0,2 C 0,0 C 87 % 89 % 1011,8 hPa 0,0 l/m 0,0 km/h (0 Bft) O-NO 67 0 min -1,1 C 0,2 C 0,0 km/h (0 Bft)
19.12.2019 22:05 0,8 C 7,1 C 0,2 C 0,6 C 0,2 C 0,0 C 87 % 89 % 1011,8 hPa 0,0 l/m 0,0 km/h (0 Bft) O-NO 67 0 min -1,1 C 0,2 C 0,0 km/h (0 Bft)
19.12.2019 22:10 0,7 C 7,1 C 0,2 C 0,5 C 0,0 C 0,0 C 87 % 89 % 1011,8 hPa 0,0 l/m 0,0 km/h (0 Bft) O-NO 67 0 min -1,2 C 0,0 C 0,0 km/h (0 Bft)
19.12.2019 22:15 0,7 C 7,1 C 0,2 C 0,4 C -0,1 C 0,0 C 87 % 89 % 1011,8 hPa 0,0 l/m 0,0 km/h (0 Bft) O-NO 67 0 min -1,2 C -0,1 C 0,0 km/h (0 Bft)
19.12.2019 22:20 0,6 C 7,1 C 0,1 C 0,4 C 0,0 C 0,0 C 87 % 89 % 1011,2 hPa 0,0 l/m 0,2 km/h (0 Bft) O-NO 67 0 min -1,3 C 0,0 C 0,0 km/h (0 Bft)
19.12.2019 22:25 0,5 C 7,1 C 0,1 C 0,3 C -0,1 C 0,0 C 88 % 89 % 1011,2 hPa 0,0 l/m 0,2 km/h (0 Bft) NO 45 0 min -1,3 C -0,1 C 0,0 km/h (0 Bft)
19.12.2019 22:30 0,4 C 7,1 C 0,1 C 0,2 C -0,1 C 0,0 C 88 % 89 % 1011,2 hPa 0,0 l/m 0,2 km/h (0 Bft) N-NW 337 0 min -1,3 C -0,1 C 2,3 km/h (1 Bft)
19.12.2019 22:35 0,4 C 7,1 C 0,1 C 0,2 C -0,2 C 0,0 C 88 % 89 % 1011,2 hPa 0,0 l/m 0,2 km/h (0 Bft) N-NW 337 0 min -1,3 C -0,2 C 0,0 km/h (0 Bft)
19.12.2019 22:40 0,2 C 7,1 C 0,1 C 0,0 C -0,3 C 0,0 C 88 % 89 % 1010,7 hPa 0,0 l/m 0,3 km/h (0 Bft) N-NO 22 0 min -1,5 C -0,3 C 0,0 km/h (0 Bft)
19.12.2019 22:45 0,3 C 7,0 C 0,0 C 0,1 C -0,3 C 0,0 C 88 % 89 % 1010,7 hPa 0,0 l/m 0,5 km/h (0 Bft) O-NO 67 0 min -1,4 C -0,3 C 2,3 km/h (1 Bft)
19.12.2019 22:50 0,1 C 7,0 C -0,1 C -0,1 C -0,4 C 0,0 C 88 % 89 % 1010,7 hPa 0,0 l/m 0,5 km/h (0 Bft) O-NO 67 0 min -1,6 C -0,4 C 1,6 km/h (1 Bft)
19.12.2019 22:55 0,0 C 7,0 C -0,1 C -0,1 C -0,3 C 0,0 C 88 % 89 % 1010,7 hPa 0,0 l/m 1,0 km/h (0 Bft) O-NO 67 0 min -1,7 C -0,3 C 1,6 km/h (1 Bft)
19.12.2019 23:00 0,0 C 7,0 C -0,1 C -0,1 C -0,2 C 0,0 C 88 % 89 % 1010,6 hPa 0,0 l/m 0,6 km/h (0 Bft) O-NO 67 0 min -1,7 C -0,2 C 0,0 km/h (0 Bft)
19.12.2019 23:05 0,1 C 7,0 C -0,1 C 0,0 C -0,1 C 0,0 C 88 % 89 % 1010,6 hPa 0,0 l/m 0,2 km/h (0 Bft) O-NO 67 0 min -1,6 C -0,1 C 0,0 km/h (0 Bft)
19.12.2019 23:10 -0,1 C 7,0 C 0,0 C -0,2 C -0,3 C 0,0 C 88 % 89 % 1010,6 hPa 0,0 l/m 0,0 km/h (0 Bft) NO 45 0 min -1,8 C -0,3 C 0,0 km/h (0 Bft)
19.12.2019 23:15 -0,1 C 7,0 C -0,1 C -0,2 C -0,5 C 0,0 C 88 % 89 % 1010,6 hPa 0,0 l/m 0,0 km/h (0 Bft) NO 45 0 min -1,8 C -0,5 C 0,0 km/h (0 Bft)
19.12.2019 23:20 -0,2 C 7,0 C -0,1 C -0,4 C -0,7 C 0,0 C 88 % 89 % 1009,9 hPa 0,0 l/m 0,0 km/h (0 Bft) NO 45 0 min -1,9 C -0,7 C 0,0 km/h (0 Bft)
19.12.2019 23:25 -0,1 C 7,0 C -0,1 C -0,3 C -0,7 C 0,0 C 88 % 89 % 1009,9 hPa 0,0 l/m 0,0 km/h (0 Bft) NO 45 0 min -1,8 C -0,7 C 0,0 km/h (0 Bft)
19.12.2019 23:30 -0,3 C 7,0 C -0,2 C -0,5 C -0,8 C 0,0 C 88 % 89 % 1009,9 hPa 0,0 l/m 0,0 km/h (0 Bft) NO 45 0 min -2,0 C -0,8 C 0,0 km/h (0 Bft)
19.12.2019 23:35 -0,3 C 7,0 C -0,2 C -0,4 C -0,7 C 0,0 C 88 % 89 % 1009,9 hPa 0,0 l/m 0,0 km/h (0 Bft) NO 45 0 min -2,0 C -0,7 C 0,0 km/h (0 Bft)
19.12.2019 23:40 -0,4 C 6,9 C -0,3 C -0,5 C -0,6 C 0,0 C 88 % 89 % 1009,6 hPa 0,0 l/m 0,0 km/h (0 Bft) NO 45 0 min -2,1 C -0,6 C 0,0 km/h (0 Bft)
19.12.2019 23:45 -0,4 C 7,0 C -0,3 C -0,5 C -0,6 C 0,0 C 88 % 89 % 1009,6 hPa 0,0 l/m 0,0 km/h (0 Bft) N-NW 337 0 min -2,1 C -0,6 C 0,0 km/h (0 Bft)
19.12.2019 23:50 -0,4 C 6,9 C -0,2 C -0,5 C -0,6 C 0,0 C 88 % 89 % 1009,6 hPa 0,0 l/m 0,2 km/h (0 Bft) N-NW 337 0 min -2,1 C -0,6 C 0,0 km/h (0 Bft)
19.12.2019 23:55 -0,5 C 6,9 C -0,2 C -0,6 C -0,7 C 0,0 C 88 % 89 % 1009,6 hPa 0,0 l/m 0,2 km/h (0 Bft) N-NW 337 0 min -2,2 C -0,7 C 0,0 km/h (0 Bft)
_ Min-Zeit 07:20 12:10 07:20 23:55 23:30 00:00 15:15 14:25 23:40 - 00:00 - - - 07:20 23:30 00:00
Minimum _ -0,7 C 6,5 C -0,3 C -0,6 C -0,8 C 0,0 C 80 % 81 % 1009,6 hPa - 0,0 km/h (0 Bft) - - - -2,4 C -0,8 C 0,0 km/h (0 Bft)
_ Max-Zeit 13:30 00:25 12:45 11:30 11:30 11:30 02:35 10:45 01:00 00:00 14:10 - - 08:25 13:25 11:30 14:05
Maximum _ 10,7 C 7,9 C 9,8 C 12,3 C 12,3 C 5,5 C 89 % 92 % 1022,4 hPa 0,0 l/m 7,1 km/h
N-NO (2 Bft)
- - 5 min 8,4 C 12,3 C 15,4 km/h
O-NO (3 Bft)
Durchschnitt _ 3,2 C 7,1 C 2,9 C 3,9 C 3,7 C 0,8 C 87 % 88 % 1017,1 hPa #0,0 l/m 1,0 km/h (0 Bft) O-NO - #2:45 h 1,2 C 3,7 C 1,3 km/h (1 Bft)
2019 www.wetterstation-wechselburg.de